Time;durP1;ratioP1;P1;durP2;ratioP2;P2;SDS_P1;SDS_P2;PMS_P1;PMS_P2;Temp;Humidity;BMP_temperature;BMP_pressure;BME280_temperature;BME280_humidity;BME280_pressure;Samples;Min_cycle;Max_cycle;Signal;HPM_P1;HPM_P2
2023/12/17 00:01:07;;;;;;;6.97;6.30;;;5.00;43.20;;;;;;4964651;28;20038;-73
2023/12/17 00:03:33;;;;;;;6.88;6.00;;;5.00;33.60;;;;;;4973780;28;20038;-72
2023/12/17 00:05:59;;;;;;;5.97;5.20;;;5.00;34.80;;;;;;4946578;28;20031;-73
2023/12/17 00:08:25;;;;;;;6.03;5.63;;;5.00;37.60;;;;;;4969929;28;20028;-73
2023/12/17 00:10:51;;;;;;;6.75;6.13;;;5.00;28.20;;;;;;4966792;28;20122;-73
2023/12/17 00:13:18;;;;;;;7.28;6.57;;;5.00;33.50;;;;;;4969847;28;20429;-72
2023/12/17 00:15:44;;;;;;;7.53;6.00;;;5.00;30.40;;;;;;4966643;28;20027;-72
2023/12/17 00:18:12;;;;;;;6.78;6.18;;;5.00;27.00;;;;;;4964902;28;20425;-73
2023/12/17 00:20:38;;;;;;;6.57;6.05;;;5.00;28.50;;;;;;4966330;28;20058;-73
2023/12/17 00:23:04;;;;;;;7.07;6.13;;;5.00;28.40;;;;;;4979856;28;20041;-72
2023/12/17 00:25:30;;;;;;;6.15;5.65;;;4.90;27.90;;;;;;4964466;28;20397;-72
2023/12/17 00:27:56;;;;;;;6.53;5.95;;;5.00;20.50;;;;;;4980515;28;20041;-72
2023/12/17 00:30:22;;;;;;;6.28;5.68;;;5.00;26.00;;;;;;4966872;28;20035;-72
2023/12/17 00:32:48;;;;;;;7.82;5.72;;;4.90;26.20;;;;;;4954892;28;20486;-73
2023/12/17 00:35:14;;;;;;;6.40;5.80;;;4.90;30.70;;;;;;4965759;28;20042;-72
2023/12/17 00:37:40;;;;;;;6.47;5.95;;;4.90;24.80;;;;;;4966792;28;20031;-72
2023/12/17 00:40:06;;;;;;;6.38;5.18;;;4.90;27.40;;;;;;4948872;28;20421;-73
2023/12/17 00:42:32;;;;;;;6.57;5.32;;;4.90;30.40;;;;;;4962469;28;20063;-72
2023/12/17 00:44:58;;;;;;;6.95;5.10;;;4.90;29.70;;;;;;4967485;28;20062;-72
2023/12/17 00:47:24;;;;;;;7.75;5.47;;;4.80;31.20;;;;;;4956428;28;20496;-72
2023/12/17 00:49:49;;;;;;;6.40;5.80;;;4.90;29.40;;;;;;4950925;28;20037;-72
2023/12/17 00:52:15;;;;;;;6.03;5.53;;;4.90;25.70;;;;;;4966624;28;20500;-73
2023/12/17 00:54:41;;;;;;;6.03;5.53;;;4.80;26.70;;;;;;4965388;28;20417;-73
2023/12/17 00:57:07;;;;;;;7.50;5.88;;;4.90;24.20;;;;;;4968025;28;20027;-72
2023/12/17 00:59:32;;;;;;;6.32;5.43;;;4.90;24.30;;;;;;4954338;28;20489;-72
2023/12/17 01:01:58;;;;;;;5.72;5.32;;;4.90;24.00;;;;;;4969470;28;20053;-72
2023/12/17 01:04:23;;;;;;;6.05;5.57;;;4.90;23.60;;;;;;4954799;28;20373;-72
2023/12/17 01:06:49;;;;;;;7.50;6.10;;;4.90;18.90;;;;;;4972513;28;20026;-72
2023/12/17 01:09:15;;;;;;;5.82;5.32;;;4.90;12.10;;;;;;4969379;28;20034;-72
2023/12/17 01:11:42;;;;;;;5.78;5.32;;;5.00;15.50;;;;;;4965016;28;20034;-72
2023/12/17 01:14:08;;;;;;;6.90;6.22;;;4.90;18.40;;;;;;4969574;28;20027;-72
2023/12/17 01:16:34;;;;;;;5.93;5.45;;;5.00;20.30;;;;;;4952688;28;20061;-72
2023/12/17 01:18:59;;;;;;;5.78;5.22;;;4.90;21.80;;;;;;4972898;28;20085;-72
2023/12/17 01:21:25;;;;;;;6.07;5.63;;;4.90;20.60;;;;;;4967978;28;20134;-72
2023/12/17 01:23:51;;;;;;;6.22;5.82;;;4.90;22.50;;;;;;4967935;28;20085;-72
2023/12/17 01:26:26;;;;;;;6.75;5.40;;;4.90;19.10;;;;;;4967809;28;20023;-72
2023/12/17 01:28:53;;;;;;;5.55;4.93;;;4.90;18.60;;;;;;4968368;28;20516;-74
2023/12/17 01:31:19;;;;;;;5.50;5.00;;;5.00;17.40;;;;;;4966033;28;20027;-74
2023/12/17 01:33:44;;;;;;;6.22;5.50;;;4.90;15.70;;;;;;4965039;28;20042;-74
2023/12/17 01:36:10;;;;;;;5.88;5.30;;;5.00;18.20;;;;;;4963227;28;20062;-75
2023/12/17 01:38:36;;;;;;;6.47;5.60;;;5.00;17.70;;;;;;4954284;28;20031;-72
2023/12/17 01:41:02;;;;;;;7.63;5.38;;;5.00;15.30;;;;;;4966708;28;20063;-72
2023/12/17 01:43:28;;;;;;;6.95;5.32;;;5.00;16.40;;;;;;4967664;28;20050;-73
2023/12/17 01:45:54;;;;;;;6.07;4.95;;;5.00;18.30;;;;;;4964124;28;20441;-72
2023/12/17 01:48:25;;;;;;;8.90;5.57;;;4.90;19.90;;;;;;4951766;28;20042;-72
2023/12/17 01:50:51;;;;;;;7.05;6.10;;;5.00;20.10;;;;;;4964378;28;20025;-74
2023/12/17 01:53:17;;;;;;;5.85;5.35;;;5.00;21.00;;;;;;4951287;28;20027;-72
2023/12/17 01:55:46;;;;;;;6.22;4.80;;;5.00;24.80;;;;;;4965496;28;20478;-72
2023/12/17 01:58:14;;;;;;;7.68;5.10;;;4.90;25.00;;;;;;4968454;28;20023;-72
2023/12/17 02:00:40;;;;;;;5.72;5.15;;;5.00;27.10;;;;;;4945208;28;20109;-72
2023/12/17 02:03:06;;;;;;;6.20;4.97;;;5.00;24.10;;;;;;4965994;28;20474;-72
2023/12/17 02:05:35;;;;;;;6.88;5.47;;;5.00;24.40;;;;;;4965032;28;20483;-72
2023/12/17 02:08:04;;;;;;;6.35;4.97;;;5.00;22.40;;;;;;4970642;28;20029;-72
2023/12/17 02:10:31;;;;;;;8.25;5.82;;;5.00;24.20;;;;;;4963244;28;20034;-72
2023/12/17 02:13:00;;;;;;;6.75;5.80;;;5.00;26.80;;;;;;4969999;28;20054;-72
2023/12/17 02:15:25;;;;;;;5.25;4.75;;;5.00;24.50;;;;;;4966776;28;20031;-72
2023/12/17 02:17:51;;;;;;;6.28;4.93;;;5.00;20.00;;;;;;4972978;28;20023;-72
2023/12/17 02:20:17;;;;;;;4.95;4.38;;;5.00;22.50;;;;;;4967291;28;20417;-72
2023/12/17 02:22:44;;;;;;;5.32;4.93;;;5.00;26.40;;;;;;4971430;28;20032;-72
2023/12/17 02:25:10;;;;;;;5.88;5.00;;;5.00;23.00;;;;;;4968731;28;20102;-72
2023/12/17 02:27:36;;;;;;;8.45;5.88;;;5.10;19.40;;;;;;4973447;28;20079;-72
2023/12/17 02:30:02;;;;;;;5.70;4.95;;;5.00;18.00;;;;;;4951790;29;20481;-72
2023/12/17 02:32:28;;;;;;;6.00;5.00;;;5.00;16.00;;;;;;4970032;28;20102;-72
2023/12/17 02:34:54;;;;;;;5.70;4.93;;;5.00;13.80;;;;;;4967073;28;20134;-72
2023/12/17 02:37:20;;;;;;;5.85;5.35;;;5.10;8.20;;;;;;4970157;28;20037;-72
2023/12/17 02:39:45;;;;;;;5.53;5.03;;;5.10;14.00;;;;;;4972203;28;20070;-72
2023/12/17 02:42:11;;;;;;;5.07;4.60;;;5.10;12.00;;;;;;4959025;28;20030;-72
2023/12/17 02:44:37;;;;;;;4.97;4.35;;;5.10;13.20;;;;;;4968370;28;20018;-72
2023/12/17 02:47:03;;;;;;;7.55;4.93;;;5.10;12.40;;;;;;4951723;28;20276;-72
2023/12/17 02:49:29;;;;;;;6.68;6.00;;;5.10;11.70;;;;;;4969657;28;20023;-72
2023/12/17 02:51:55;;;;;;;5.25;4.82;;;5.10;8.50;;;;;;4968170;28;20023;-72
2023/12/17 02:54:23;;;;;;;4.60;4.30;;;5.10;9.40;;;;;;4947780;28;20028;-72
2023/12/17 02:56:49;;;;;;;4.97;3.95;;;5.10;10.10;;;;;;4971630;28;20030;-72
2023/12/17 02:59:15;;;;;;;5.00;4.57;;;5.10;7.50;;;;;;4967849;28;20019;-72
2023/12/17 03:01:41;;;;;;;4.97;4.57;;;5.10;1.00;;;;;;4956090;28;20037;-72
2023/12/17 03:04:08;;;;;;;4.32;3.92;;;5.10;3.80;;;;;;4948800;28;20034;-73
2023/12/17 03:06:35;;;;;;;5.15;4.50;;;5.10;1.00;;;;;;4954278;28;20077;-72
2023/12/17 03:09:00;;;;;;;5.32;4.75;;;5.10;1.00;;;;;;4969618;28;20030;-72
2023/12/17 03:11:26;;;;;;;6.05;4.88;;;5.20;1.00;;;;;;4969111;28;20018;-72
2023/12/17 03:13:52;;;;;;;4.95;4.55;;;5.20;1.00;;;;;;4952343;28;20060;-72
2023/12/17 03:16:17;;;;;;;5.90;4.40;;;5.20;1.00;;;;;;4967439;28;20030;-72
2023/12/17 03:18:43;;;;;;;5.13;4.38;;;5.20;1.00;;;;;;4971534;28;20101;-72
2023/12/17 03:21:09;;;;;;;5.10;4.70;;;5.10;1.00;;;;;;4967581;28;20530;-72
2023/12/17 03:23:35;;;;;;;5.60;5.10;;;5.10;1.00;;;;;;4970725;28;20481;-72
2023/12/17 03:26:02;;;;;;;5.90;4.43;;;5.10;1.00;;;;;;4965570;28;20513;-72
2023/12/17 03:28:27;;;;;;;6.00;5.00;;;5.10;1.00;;;;;;4970875;28;20030;-73
2023/12/17 03:30:53;;;;;;;5.10;4.15;;;5.00;1.10;;;;;;4969729;28;20482;-72
2023/12/17 03:33:19;;;;;;;8.43;4.57;;;5.00;5.90;;;;;;4967599;28;20022;-72
2023/12/17 03:35:44;;;;;;;5.65;4.10;;;5.00;4.90;;;;;;4967427;28;20038;-72
2023/12/17 03:38:10;;;;;;;5.78;4.57;;;5.00;2.60;;;;;;4955340;28;20034;-72
2023/12/17 03:40:35;;;;;;;5.05;4.57;;;5.00;7.40;;;;;;4966782;28;20393;-72
2023/12/17 03:43:02;;;;;;;5.20;4.10;;;4.90;1.70;;;;;;4974738;28;20037;-72
2023/12/17 03:45:27;;;;;;;4.97;4.60;;;4.90;1.00;;;;;;4966934;28;20036;-72
2023/12/17 03:47:53;;;;;;;5.13;4.68;;;4.80;2.00;;;;;;4967343;28;20039;-72
2023/12/17 03:50:19;;;;;;;5.35;4.85;;;4.90;1.00;;;;;;4969600;28;20749;-72
2023/12/17 03:52:48;;;;;;;5.10;4.80;;;4.90;1.00;;;;;;4970378;28;20122;-72
2023/12/17 03:55:15;;;;;;;5.18;4.65;;;5.00;1.00;;;;;;4969151;28;20027;-74
2023/12/17 03:57:41;;;;;;;6.07;5.20;;;4.90;4.30;;;;;;4950225;28;20026;-74
2023/12/17 04:00:10;;;;;;;5.10;4.80;;;4.90;1.00;;;;;;4964925;28;20525;-74
2023/12/17 04:02:36;;;;;;;5.30;4.78;;;4.80;2.80;;;;;;4952995;28;20576;-74
2023/12/17 04:05:02;;;;;;;5.30;4.80;;;4.80;1.00;;;;;;4954489;28;20023;-74
2023/12/17 04:07:29;;;;;;;4.82;4.45;;;4.90;1.00;;;;;;4972832;28;20030;-74
2023/12/17 04:09:59;;;;;;;5.47;4.22;;;4.90;1.00;;;;;;4967838;28;20335;-74
2023/12/17 04:12:25;;;;;;;5.03;4.60;;;4.90;1.00;;;;;;4970507;28;20389;-74
2023/12/17 04:14:50;;;;;;;6.43;4.22;;;5.00;1.00;;;;;;4965401;28;20023;-72
2023/12/17 04:17:16;;;;;;;8.07;5.15;;;5.00;1.00;;;;;;4969004;28;20023;-72
2023/12/17 04:19:42;;;;;;;4.97;4.40;;;5.00;1.00;;;;;;4969283;28;20019;-72
2023/12/17 04:22:07;;;;;;;4.82;4.47;;;5.00;1.00;;;;;;4967594;28;20062;-72
2023/12/17 04:24:33;;;;;;;4.97;4.47;;;5.10;1.00;;;;;;4966690;28;20361;-73
2023/12/17 04:26:58;;;;;;;4.65;4.10;;;5.00;1.00;;;;;;4952209;28;20506;-72
2023/12/17 04:29:24;;;;;;;5.75;4.50;;;5.00;1.00;;;;;;4966633;28;20181;-72
2023/12/17 04:31:50;;;;;;;5.50;4.22;;;5.00;1.00;;;;;;4969079;28;20043;-72
2023/12/17 04:34:16;;;;;;;5.18;4.32;;;5.00;1.00;;;;;;4963591;28;20134;-72
2023/12/17 04:36:42;;;;;;;4.65;4.30;;;5.00;1.00;;;;;;4967825;28;20173;-72
2023/12/17 04:39:09;;;;;;;5.05;4.57;;;5.00;1.00;;;;;;4969033;28;20034;-73
2023/12/17 04:41:36;;;;;;;4.32;3.97;;;5.00;1.00;;;;;;4966107;28;20023;-72
2023/12/17 04:44:02;;;;;;;9.50;4.90;;;5.00;1.00;;;;;;4953555;28;20086;-72
2023/12/17 04:46:29;;;;;;;5.60;4.43;;;5.00;1.00;;;;;;4950111;28;20040;-72
2023/12/17 04:48:55;;;;;;;4.22;3.92;;;5.00;1.00;;;;;;4965844;28;20085;-72
2023/12/17 04:51:22;;;;;;;5.20;4.32;;;5.00;1.00;;;;;;4965692;28;20026;-72
2023/12/17 04:53:51;;;;;;;5.57;3.70;;;5.00;1.00;;;;;;4954756;28;20031;-72
2023/12/17 04:56:17;;;;;;;7.65;4.22;;;5.00;1.00;;;;;;4965584;28;20037;-73
2023/12/17 04:58:43;;;;;;;5.90;4.72;;;5.00;1.00;;;;;;4966247;28;20047;-72
2023/12/17 05:01:09;;;;;;;5.18;4.35;;;5.10;1.00;;;;;;4954768;28;20065;-72
2023/12/17 05:03:36;;;;;;;5.10;4.60;;;5.10;1.00;;;;;;4965872;28;20119;-72
2023/12/17 05:06:02;;;;;;;5.25;4.75;;;5.00;1.00;;;;;;4965267;28;20033;-72
2023/12/17 05:08:27;;;;;;;5.38;4.55;;;5.00;1.00;;;;;;4966928;28;20102;-72
2023/12/17 05:10:53;;;;;;;4.78;4.32;;;5.00;1.00;;;;;;4966248;28;20031;-73
2023/12/17 05:13:18;;;;;;;4.85;3.78;;;5.00;1.00;;;;;;4955486;28;20030;-72
2023/12/17 05:15:44;;;;;;;4.30;4.00;;;5.00;1.00;;;;;;4964328;28;20022;-72
2023/12/17 05:18:10;;;;;;;4.72;4.32;;;4.90;1.00;;;;;;4968194;28;20533;-72
2023/12/17 05:20:35;;;;;;;5.38;4.03;;;4.90;1.00;;;;;;4955858;28;20035;-73
2023/12/17 05:23:02;;;;;;;4.25;3.83;;;4.80;1.00;;;;;;4952555;28;20027;-72
2023/12/17 05:25:28;;;;;;;4.53;4.03;;;4.80;1.00;;;;;;4962455;28;20031;-72
2023/12/17 05:27:53;;;;;;;4.07;3.78;;;4.80;1.00;;;;;;4953500;28;20081;-72
2023/12/17 05:30:19;;;;;;;8.02;4.15;;;4.70;1.00;;;;;;4966362;28;20481;-72
2023/12/17 05:32:45;;;;;;;5.07;3.72;;;4.70;1.00;;;;;;4965218;28;20050;-72
2023/12/17 05:35:11;;;;;;;4.68;3.65;;;4.70;1.00;;;;;;4962132;28;20051;-72
2023/12/17 05:37:36;;;;;;;4.10;3.80;;;4.60;1.00;;;;;;4966169;28;20022;-72
2023/12/17 05:40:02;;;;;;;4.65;3.90;;;4.70;1.00;;;;;;4951057;28;20113;-72
2023/12/17 05:42:28;;;;;;;4.80;4.22;;;4.70;1.00;;;;;;4950606;28;20031;-72
2023/12/17 05:44:53;;;;;;;3.78;3.58;;;4.70;1.00;;;;;;4964222;28;20106;-72
2023/12/17 05:47:19;;;;;;;4.10;3.58;;;4.70;1.00;;;;;;4963487;28;20062;-72
2023/12/17 05:49:45;;;;;;;4.15;3.22;;;4.70;1.00;;;;;;4945955;28;20439;-72
2023/12/17 05:52:11;;;;;;;5.00;4.28;;;4.80;1.00;;;;;;4964477;28;20061;-72
2023/12/17 05:54:38;;;;;;;5.95;3.63;;;4.80;1.00;;;;;;4964681;28;20018;-72
2023/12/17 05:57:04;;;;;;;4.20;3.80;;;4.70;1.00;;;;;;4961510;28;20497;-72
2023/12/17 05:59:30;;;;;;;6.53;4.00;;;4.70;1.00;;;;;;4961617;28;20023;-72
2023/12/17 06:01:55;;;;;;;3.85;3.53;;;4.70;1.00;;;;;;4966262;28;20039;-72
2023/12/17 06:04:21;;;;;;;4.57;3.97;;;4.70;1.00;;;;;;4963716;28;20124;-72
2023/12/17 06:06:47;;;;;;;3.70;3.33;;;4.70;1.00;;;;;;4947357;28;20039;-72
2023/12/17 06:09:13;;;;;;;4.03;3.78;;;4.80;1.00;;;;;;4950010;28;20121;-72
2023/12/17 06:11:38;;;;;;;4.38;3.53;;;4.80;1.00;;;;;;4947499;28;20039;-72
2023/12/17 06:14:04;;;;;;;3.95;3.65;;;4.80;1.00;;;;;;4964697;28;20027;-72
2023/12/17 06:16:30;;;;;;;4.28;4.07;;;4.70;1.00;;;;;;4965909;28;20011;-72
2023/12/17 06:18:55;;;;;;;4.05;3.78;;;4.50;5.50;;;;;;4965752;28;20540;-72
2023/12/17 06:21:23;;;;;;;5.20;4.28;;;4.40;9.20;;;;;;4964688;28;20030;-72
2023/12/17 06:23:50;;;;;;;4.90;3.78;;;4.40;15.60;;;;;;4964743;28;20023;-72
2023/12/17 06:26:18;;;;;;;5.13;3.83;;;4.40;13.80;;;;;;4964604;28;20125;-72
2023/12/17 06:28:43;;;;;;;4.07;3.63;;;4.30;6.80;;;;;;4967260;28;20027;-72
2023/12/17 06:31:09;;;;;;;4.35;4.00;;;4.40;8.50;;;;;;4965281;28;20054;-72
2023/12/17 06:33:35;;;;;;;5.53;3.90;;;4.40;6.50;;;;;;4948145;28;20044;-73
2023/12/17 06:36:00;;;;;;;3.78;3.58;;;4.30;7.30;;;;;;4941907;28;20498;-72
2023/12/17 06:38:26;;;;;;;3.90;3.60;;;4.30;8.00;;;;;;4946014;28;20031;-72
2023/12/17 06:40:53;;;;;;;4.05;3.65;;;4.30;14.30;;;;;;4944833;29;20040;-72
2023/12/17 06:43:19;;;;;;;4.68;3.45;;;4.30;11.20;;;;;;4947597;29;20030;-72
2023/12/17 06:45:45;;;;;;;4.07;3.70;;;4.30;11.20;;;;;;4943725;29;20031;-72
2023/12/17 06:48:10;;;;;;;7.22;3.35;;;4.30;9.90;;;;;;4948393;28;20067;-72
2023/12/17 06:50:36;;;;;;;5.43;4.25;;;4.30;13.00;;;;;;4944915;29;20431;-72
2023/12/17 06:53:01;;;;;;;3.92;3.63;;;4.40;3.80;;;;;;4948776;28;20030;-73
2023/12/17 06:55:27;;;;;;;4.35;3.40;;;4.40;1.50;;;;;;4941928;29;20116;-72
2023/12/17 06:57:53;;;;;;;3.78;3.53;;;4.40;1.00;;;;;;4949722;28;20023;-72
2023/12/17 07:00:18;;;;;;;4.80;4.10;;;4.40;1.00;;;;;;4950021;29;20031;-72
2023/12/17 07:02:44;;;;;;;3.88;3.67;;;4.40;1.00;;;;;;4950675;29;20035;-72
2023/12/17 07:05:11;;;;;;;4.57;3.75;;;4.50;1.00;;;;;;4946451;29;20024;-72
2023/12/17 07:07:36;;;;;;;4.35;4.05;;;4.40;1.00;;;;;;4948577;28;20082;-72
2023/12/17 07:10:02;;;;;;;4.28;3.97;;;4.40;1.00;;;;;;4947340;29;20036;-72
2023/12/17 07:12:28;;;;;;;6.75;4.78;;;4.30;5.10;;;;;;4949590;28;20030;-72
2023/12/17 07:14:54;;;;;;;5.13;4.70;;;4.10;27.00;;;;;;4948544;29;20482;-72
2023/12/17 07:17:20;;;;;;;3.97;3.67;;;4.00;41.40;;;;;;4952182;28;20038;-72
2023/12/17 07:19:45;;;;;;;4.80;4.40;;;4.00;33.70;;;;;;4948113;29;20433;-72
2023/12/17 07:22:11;;;;;;;4.70;4.50;;;4.00;29.30;;;;;;4951236;28;20488;-73
2023/12/17 07:24:36;;;;;;;4.07;3.78;;;4.10;29.80;;;;;;4945861;29;20028;-72
2023/12/17 07:27:02;;;;;;;6.15;4.25;;;4.20;34.80;;;;;;4947696;28;20032;-72
2023/12/17 07:29:28;;;;;;;4.90;4.40;;;4.20;24.80;;;;;;4948476;29;20023;-72
2023/12/17 07:31:53;;;;;;;6.47;4.80;;;4.30;21.50;;;;;;4951104;29;20023;-72
2023/12/17 07:34:19;;;;;;;5.32;4.55;;;4.40;16.40;;;;;;4958405;28;20051;-72
2023/12/17 07:36:45;;;;;;;6.28;5.72;;;4.40;13.60;;;;;;4957003;28;20027;-72
2023/12/17 07:39:11;;;;;;;12.25;8.77;;;4.40;22.60;;;;;;4970607;28;20022;-72
2023/12/17 07:41:36;;;;;;;11.07;9.77;;;4.30;32.80;;;;;;4966967;28;20054;-72
2023/12/17 07:44:03;;;;;;;10.02;8.95;;;4.30;42.60;;;;;;4966565;28;20055;-72
2023/12/17 07:46:29;;;;;;;9.48;8.55;;;4.20;48.50;;;;;;4966727;28;20081;-72
2023/12/17 07:48:54;;;;;;;10.27;9.25;;;4.20;53.90;;;;;;4966457;28;20501;-72
2023/12/17 07:51:20;;;;;;;9.07;8.25;;;4.10;63.90;;;;;;4965873;28;20037;-72
2023/12/17 07:53:47;;;;;;;21.42;13.55;;;4.10;64.60;;;;;;4956972;28;20030;-72
2023/12/17 07:56:13;;;;;;;14.73;13.32;;;4.10;67.00;;;;;;4948702;28;20046;-72
2023/12/17 07:58:39;;;;;;;8.85;6.25;;;4.20;56.70;;;;;;4969741;28;20437;-72
2023/12/17 08:01:05;;;;;;;6.35;5.85;;;4.20;51.20;;;;;;4966278;28;20032;-72
2023/12/17 08:03:31;;;;;;;7.25;5.40;;;4.20;49.50;;;;;;4966137;28;20027;-72
2023/12/17 08:05:57;;;;;;;5.43;4.80;;;4.30;41.50;;;;;;4963718;28;20461;-72
2023/12/17 08:08:22;;;;;;;6.20;5.70;;;4.40;35.70;;;;;;4971084;28;20035;-72
2023/12/17 08:10:48;;;;;;;4.97;4.40;;;4.40;42.80;;;;;;4954426;28;20039;-72
2023/12/17 08:13:15;;;;;;;5.65;4.53;;;4.50;41.20;;;;;;4967460;28;20109;-72
2023/12/17 08:15:41;;;;;;;4.85;4.40;;;4.60;31.70;;;;;;4955336;28;20066;-72
2023/12/17 08:18:06;;;;;;;8.63;7.32;;;4.60;34.80;;;;;;4967469;28;20023;-72
2023/12/17 08:20:32;;;;;;;7.95;7.25;;;4.70;39.90;;;;;;4963592;28;20031;-72
2023/12/17 08:22:58;;;;;;;10.65;5.88;;;4.70;40.50;;;;;;4969703;28;20469;-72
2023/12/17 08:25:24;;;;;;;7.63;5.72;;;4.80;32.30;;;;;;4966503;28;20031;-73
2023/12/17 08:27:50;;;;;;;6.38;5.72;;;4.80;33.30;;;;;;4969610;28;20037;-72
2023/12/17 08:30:17;;;;;;;6.70;6.05;;;4.90;28.90;;;;;;4966022;28;20077;-72
2023/12/17 08:32:44;;;;;;;7.68;5.55;;;4.90;22.80;;;;;;4966228;28;20023;-72
2023/12/17 08:35:10;;;;;;;9.23;8.27;;;4.90;36.00;;;;;;4946945;28;20051;-72
2023/12/17 08:37:36;;;;;;;11.18;10.07;;;4.90;42.40;;;;;;4967863;28;20070;-72
2023/12/17 08:40:03;;;;;;;10.38;9.15;;;4.90;50.20;;;;;;4965975;28;20027;-72
2023/12/17 08:42:28;;;;;;;10.43;8.70;;;5.00;48.10;;;;;;4966166;28;20050;-72
2023/12/17 08:44:54;;;;;;;10.15;9.15;;;5.00;38.30;;;;;;4969369;28;20050;-72
2023/12/17 08:47:20;;;;;;;14.82;9.73;;;5.00;41.50;;;;;;4975335;28;20359;-72
2023/12/17 08:49:46;;;;;;;13.35;11.98;;;5.10;44.90;;;;;;4945861;28;20043;-72
2023/12/17 08:52:12;;;;;;;10.45;9.32;;;5.10;39.20;;;;;;4968180;28;20117;-74
2023/12/17 08:54:37;;;;;;;10.45;8.52;;;5.10;29.30;;;;;;4964275;28;20441;-74
2023/12/17 08:57:04;;;;;;;6.32;5.72;;;5.20;31.00;;;;;;4965672;28;20027;-74
2023/12/17 08:59:29;;;;;;;7.55;6.82;;;5.20;16.10;;;;;;4965150;28;20031;-72
2023/12/17 09:01:55;;;;;;;7.40;6.75;;;5.30;1.00;;;;;;4959127;28;20031;-72
2023/12/17 09:04:21;;;;;;;5.93;5.30;;;5.30;11.40;;;;;;4972341;28;20093;-72
2023/12/17 09:06:47;;;;;;;8.48;5.35;;;5.40;20.00;;;;;;4951342;28;20030;-72
2023/12/17 09:09:14;;;;;;;5.57;4.10;;;5.50;14.00;;;;;;4966850;28;20066;-72
2023/12/17 09:11:40;;;;;;;4.80;4.43;;;5.60;1.00;;;;;;4965165;28;20034;-72
2023/12/17 09:14:07;;;;;;;8.55;4.50;;;5.60;2.60;;;;;;4976994;28;20050;-72
2023/12/17 09:16:33;;;;;;;6.97;4.53;;;5.70;1.00;;;;;;4957341;28;20024;-72
2023/12/17 09:18:59;;;;;;;7.20;5.07;;;5.80;1.00;;;;;;4968138;28;20081;-72
2023/12/17 09:21:25;;;;;;;5.50;5.00;;;5.80;1.00;;;;;;4965730;28;20034;-72
2023/12/17 09:23:51;;;;;;;9.50;5.30;;;5.90;1.00;;;;;;4957477;28;20185;-73
2023/12/17 09:26:18;;;;;;;6.97;5.63;;;5.90;3.50;;;;;;4965022;28;20030;-72
2023/12/17 09:28:44;;;;;;;6.05;5.45;;;5.90;6.40;;;;;;4974032;28;20061;-72
2023/12/17 09:31:11;;;;;;;5.30;5.00;;;6.00;1.00;;;;;;4965002;28;20027;-72
2023/12/17 09:33:37;;;;;;;6.13;5.53;;;6.00;1.00;;;;;;4978796;28;20500;-73
2023/12/17 09:36:07;;;;;;;7.50;6.68;;;6.10;1.00;;;;;;4964632;28;20106;-72
2023/12/17 09:38:33;;;;;;;12.32;7.20;;;6.10;6.30;;;;;;4953637;28;20500;-72
2023/12/17 09:40:59;;;;;;;7.40;6.13;;;6.20;8.40;;;;;;4964568;28;20032;-72
2023/12/17 09:43:25;;;;;;;8.90;6.30;;;6.40;4.00;;;;;;4972938;28;20034;-72
2023/12/17 09:45:51;;;;;;;8.85;6.50;;;6.40;1.00;;;;;;4965148;28;20031;-72
2023/12/17 09:48:18;;;;;;;27.33;14.82;;;6.60;1.00;;;;;;4968437;28;20036;-73
2023/12/17 09:50:44;;;;;;;12.27;8.50;;;6.60;1.00;;;;;;4962034;28;20088;-72
2023/12/17 09:53:10;;;;;;;9.60;7.55;;;6.70;1.00;;;;;;4972414;28;20122;-72
2023/12/17 09:55:37;;;;;;;22.40;7.93;;;6.70;1.00;;;;;;4964913;28;20117;-72
2023/12/17 09:58:06;;;;;;;8.48;6.40;;;6.80;1.00;;;;;;4966919;28;20018;-73
2023/12/17 10:00:33;;;;;;;15.23;7.05;;;6.80;1.00;;;;;;4965538;28;20031;-73
2023/12/17 10:03:12;;;;;;;10.27;7.20;;;6.80;1.00;;;;;;4968310;28;20026;-72
2023/12/17 10:05:38;;;;;;;11.73;7.05;;;6.80;1.00;;;;;;4954349;28;20110;-73
2023/12/17 10:08:03;;;;;;;11.27;6.88;;;6.80;1.00;;;;;;4973249;28;20553;-73
2023/12/17 10:10:30;;;;;;;10.80;7.25;;;6.80;1.00;;;;;;4964424;28;20437;-72
2023/12/17 10:12:56;;;;;;;8.23;7.07;;;6.80;1.00;;;;;;4965828;28;20037;-73
2023/12/17 10:15:21;;;;;;;15.20;7.05;;;6.80;1.00;;;;;;4961619;28;20110;-72
2023/12/17 10:17:47;;;;;;;16.13;6.88;;;6.80;1.00;;;;;;4950365;28;20024;-73
2023/12/17 10:20:19;;;;;;;13.68;8.02;;;6.80;1.00;;;;;;4946882;28;20031;-72
2023/12/17 10:23:03;;;;;;;;;;;6.80;1.00;;;;;;4967892;28;20477;-74
2023/12/17 10:25:29;;;;;;;10.82;7.40;;;6.90;1.00;;;;;;4950798;28;19926;-74
2023/12/17 10:27:59;;;;;;;17.58;7.70;;;7.00;1.00;;;;;;4967932;28;20454;-72
2023/12/17 10:30:28;;;;;;;10.70;6.90;;;7.00;1.00;;;;;;4947530;28;20563;-72
2023/12/17 10:32:54;;;;;;;11.70;6.18;;;7.10;1.00;;;;;;4970681;28;20549;-73
2023/12/17 10:35:23;;;;;;;7.95;6.45;;;7.20;1.00;;;;;;4968216;28;20511;-72
2023/12/17 10:38:00;;;;;;;9.63;6.43;;;7.20;1.00;;;;;;4969634;28;20477;-73
2023/12/17 10:40:26;;;;;;;7.15;6.45;;;7.20;1.00;;;;;;4971254;28;20022;-72
2023/12/17 10:42:54;;;;;;;8.02;7.20;;;7.20;1.00;;;;;;4968810;28;20039;-72
2023/12/17 10:45:21;;;;;;;8.75;6.65;;;7.30;1.00;;;;;;4964993;28;20117;-72
2023/12/17 10:47:58;;;;;;;9.15;6.82;;;7.30;1.00;;;;;;4970947;28;20069;-72
2023/12/17 10:50:25;;;;;;;17.52;7.00;;;7.40;1.00;;;;;;4965231;28;20335;-73
2023/12/17 10:52:51;;;;;;;11.55;6.90;;;7.50;1.00;;;;;;4958583;28;20347;-72
2023/12/17 10:55:17;;;;;;;11.07;7.43;;;7.60;1.00;;;;;;4967102;28;20035;-72
2023/12/17 10:57:49;;;;;;;7.88;7.15;;;7.70;1.00;;;;;;4967726;28;20026;-73
2023/12/17 11:00:18;;;;;;;16.52;7.93;;;7.80;1.00;;;;;;4969446;28;20027;-72
2023/12/17 11:02:46;;;;;;;10.68;7.47;;;7.80;1.00;;;;;;4968237;28;20084;-73
2023/12/17 11:05:13;;;;;;;7.38;6.75;;;7.90;1.00;;;;;;4964726;28;20027;-73
2023/12/17 11:07:38;;;;;;;12.70;6.45;;;7.90;1.00;;;;;;4953984;28;20100;-73
2023/12/17 11:10:12;;;;;;;11.20;7.38;;;8.00;1.00;;;;;;4966861;28;20470;-73
2023/12/17 11:12:44;;;;;;;8.00;7.20;;;8.00;1.00;;;;;;4955741;28;20694;-72
2023/12/17 11:15:11;;;;;;;9.20;7.50;;;8.10;1.00;;;;;;4967929;28;20097;-74
2023/12/17 11:17:38;;;;;;;7.47;6.85;;;8.10;1.00;;;;;;4975631;28;20026;-72
2023/12/17 11:20:05;;;;;;;11.43;7.35;;;8.20;1.00;;;;;;4966211;28;20047;-72
2023/12/17 11:22:36;;;;;;;11.02;8.20;;;8.20;1.00;;;;;;4952832;28;20039;-72
2023/12/17 11:25:02;;;;;;;9.93;6.90;;;8.30;1.00;;;;;;4948359;28;20457;-72
2023/12/17 11:27:31;;;;;;;11.18;7.57;;;8.30;1.00;;;;;;4954746;28;20174;-73
2023/12/17 11:29:56;;;;;;;9.48;7.28;;;8.30;1.00;;;;;;4969160;28;20031;-72
2023/12/17 11:32:30;;;;;;;12.88;7.72;;;8.40;99.90;;;;;;4967989;28;20030;-73
2023/12/17 11:34:57;;;;;;;10.98;7.28;;;8.50;99.90;;;;;;4965901;28;20083;-73
2023/12/17 11:37:29;;;;;;;12.23;6.38;;;8.60;99.90;;;;;;4971544;28;20029;-73
2023/12/17 11:39:55;;;;;;;8.65;7.68;;;8.60;99.90;;;;;;4969070;28;20397;-72
2023/12/17 11:42:21;;;;;;;8.00;6.70;;;8.60;1.00;;;;;;4969292;28;20027;-73
2023/12/17 11:44:50;;;;;;;11.82;7.68;;;8.70;99.90;;;;;;4949356;28;20027;-73
2023/12/17 11:47:17;;;;;;;9.10;7.47;;;8.70;99.90;;;;;;4968872;28;20533;-73
2023/12/17 11:49:43;;;;;;;10.30;7.38;;;8.80;1.00;;;;;;4967153;28;20477;-73
2023/12/17 11:52:14;;;;;;;9.40;7.63;;;8.90;1.00;;;;;;4966724;28;20038;-73
2023/12/17 11:54:42;;;;;;;9.20;7.57;;;8.90;1.00;;;;;;4951217;28;20026;-72
2023/12/17 11:57:21;;;;;;;10.80;7.93;;;9.00;99.90;;;;;;4966871;28;20050;-73
2023/12/17 11:59:47;;;;;;;13.18;7.72;;;9.10;99.90;;;;;;4967677;28;20031;-72
2023/12/17 12:02:17;;;;;;;14.07;7.50;;;9.10;99.90;;;;;;4967272;28;20515;-73
2023/12/17 12:04:45;;;;;;;9.85;7.50;;;9.20;99.90;;;;;;4935451;29;20032;-73
2023/12/17 12:07:14;;;;;;;10.30;8.25;;;9.40;99.90;;;;;;4964473;28;20051;-73
2023/12/17 12:09:40;;;;;;;8.45;7.05;;;9.40;99.90;;;;;;4967441;28;20028;-73
2023/12/17 12:12:19;;;;;;;10.07;7.40;;;9.50;99.90;;;;;;4968490;28;20097;-73
2023/12/17 12:14:48;;;;;;;7.80;6.03;;;9.60;99.90;;;;;;4967231;28;20019;-73
2023/12/17 12:17:40;;;;;;;8.77;6.53;;;9.70;99.90;;;;;;4950169;28;20438;-72
2023/12/17 12:20:07;;;;;;;;;;;9.70;99.90;;;;;;4963171;28;20031;-73
2023/12/17 12:22:34;;;;;;;5.78;5.25;;;9.60;99.90;;;;;;4972067;28;19934;-73
2023/12/17 12:25:00;;;;;;;6.03;5.43;;;9.70;44.30;;;;;;4947942;28;20035;-73
2023/12/17 12:27:26;;;;;;;5.53;4.95;;;9.70;99.90;;;;;;4954919;28;20445;-73
2023/12/17 12:29:52;;;;;;;6.25;5.68;;;9.70;1.00;;;;;;4966002;28;20038;-73
2023/12/17 12:32:28;;;;;;;11.85;5.43;;;9.60;99.90;;;;;;4965547;28;20071;-72
2023/12/17 12:34:55;;;;;;;7.78;5.35;;;9.70;99.90;;;;;;4965602;28;20043;-73
2023/12/17 12:37:34;;;;;;;5.45;5.05;;;9.70;99.90;;;;;;4968287;28;20031;-73
2023/12/17 12:40:00;;;;;;;7.57;6.47;;;9.80;1.00;;;;;;4963458;28;20094;-73
2023/12/17 12:42:26;;;;;;;6.25;5.65;;;9.70;99.90;;;;;;4971813;28;20026;-72
2023/12/17 12:44:52;;;;;;;6.93;5.68;;;9.60;99.90;;;;;;4946911;28;20024;-73
2023/12/17 12:47:18;;;;;;;4.97;4.65;;;9.50;99.90;;;;;;4966139;28;20043;-73
2023/12/17 12:49:43;;;;;;;7.43;5.20;;;9.60;99.90;;;;;;4954714;28;20466;-73
2023/12/17 12:52:09;;;;;;;6.03;4.90;;;9.50;99.90;;;;;;4966918;28;20027;-72
2023/12/17 12:54:35;;;;;;;7.80;5.32;;;9.60;99.90;;;;;;4965952;28;20484;-72
2023/12/17 12:57:01;;;;;;;5.70;4.60;;;9.70;1.00;;;;;;4964399;28;20064;-72